Time;durP1;ratioP1;P1;durP2;ratioP2;P2;SDS_P1;SDS_P2;PMS_P1;PMS_P2;Temp;Humidity;BMP_temperature;BMP_pressure;BME280_temperature;BME280_humidity;BME280_pressure;Samples;Min_cycle;Max_cycle;Signal;HPM_P1;HPM_P2
2022/11/22 00:02:23;;;;;;;5.15;1.90;;;;;;;;;;5077552;28;20107;-58
2022/11/22 00:04:48;;;;;;;5.18;1.95;;;;;;;;;;5076719;28;20059;-58
2022/11/22 00:07:13;;;;;;;3.97;1.77;;;;;;;;;;5107702;27;20048;-58
2022/11/22 00:09:38;;;;;;;5.13;1.90;;;;;;;;;;5076507;28;20548;-58
2022/11/22 00:12:04;;;;;;;3.28;1.83;;;;;;;;;;5069116;28;20112;-58
2022/11/22 00:14:29;;;;;;;5.03;1.80;;;;;;;;;;5088190;28;20107;-58
2022/11/22 00:16:54;;;;;;;3.42;1.90;;;;;;;;;;5085667;28;20022;-57
2022/11/22 00:19:19;;;;;;;2.35;1.70;;;;;;;;;;5082539;28;20020;-58
2022/11/22 00:21:45;;;;;;;5.43;1.88;;;;;;;;;;5086219;28;20056;-58
2022/11/22 00:24:11;;;;;;;5.57;1.83;;;;;;;;;;5067428;28;20037;-58
2022/11/22 00:26:36;;;;;;;3.58;1.75;;;;;;;;;;5091189;28;20038;-58
2022/11/22 00:29:02;;;;;;;5.85;2.10;;;;;;;;;;5072741;28;20025;-57
2022/11/22 00:31:27;;;;;;;2.88;1.73;;;;;;;;;;5077706;28;20032;-58
2022/11/22 00:33:52;;;;;;;6.38;2.00;;;;;;;;;;5078999;28;20020;-58
2022/11/22 00:36:17;;;;;;;2.90;1.77;;;;;;;;;;5076646;28;20032;-58
2022/11/22 00:38:42;;;;;;;3.97;2.05;;;;;;;;;;5079907;28;20020;-58
2022/11/22 00:41:08;;;;;;;5.63;1.85;;;;;;;;;;5086567;28;20034;-57
2022/11/22 00:43:33;;;;;;;3.42;1.70;;;;;;;;;;5082526;28;20271;-58
2022/11/22 00:45:59;;;;;;;6.30;1.75;;;;;;;;;;5073658;28;20050;-58
2022/11/22 00:48:24;;;;;;;3.80;1.92;;;;;;;;;;5075619;28;20627;-57
2022/11/22 00:50:49;;;;;;;4.53;2.10;;;;;;;;;;5082599;28;20115;-58
2022/11/22 00:53:14;;;;;;;3.03;1.85;;;;;;;;;;5075014;28;20032;-58
2022/11/22 00:55:40;;;;;;;4.20;1.90;;;;;;;;;;5078019;28;20016;-58
2022/11/22 00:58:05;;;;;;;7.43;2.30;;;;;;;;;;5079620;28;20122;-57
2022/11/22 01:00:30;;;;;;;6.15;2.42;;;;;;;;;;5083702;28;20038;-58
2022/11/22 01:02:55;;;;;;;4.40;1.90;;;;;;;;;;5073997;28;20035;-58
2022/11/22 01:05:21;;;;;;;5.80;2.25;;;;;;;;;;5076271;28;20114;-58
2022/11/22 01:07:46;;;;;;;5.28;1.90;;;;;;;;;;5082227;28;20055;-58
2022/11/22 01:10:11;;;;;;;6.40;2.00;;;;;;;;;;5071394;28;20070;-58
2022/11/22 01:12:37;;;;;;;4.95;2.00;;;;;;;;;;5078742;28;20148;-58
2022/11/22 01:15:02;;;;;;;4.20;2.00;;;;;;;;;;5074638;28;20027;-57
2022/11/22 01:17:27;;;;;;;6.43;1.92;;;;;;;;;;5075171;28;20021;-58
2022/11/22 01:19:53;;;;;;;4.32;1.90;;;;;;;;;;5078046;28;20035;-58
2022/11/22 01:22:18;;;;;;;8.18;2.20;;;;;;;;;;5084463;28;20016;-58
2022/11/22 01:24:43;;;;;;;5.43;1.80;;;;;;;;;;5084790;28;20036;-58
2022/11/22 01:27:08;;;;;;;3.63;2.28;;;;;;;;;;5079099;28;20457;-58
2022/11/22 01:29:33;;;;;;;4.32;2.10;;;;;;;;;;5076709;28;20444;-58
2022/11/22 01:31:59;;;;;;;2.30;1.70;;;;;;;;;;5070228;28;20052;-58
2022/11/22 01:34:24;;;;;;;3.92;2.03;;;;;;;;;;5085223;28;20349;-58
2022/11/22 01:36:50;;;;;;;4.47;1.70;;;;;;;;;;5102480;27;20020;-58
2022/11/22 01:39:15;;;;;;;3.85;2.25;;;;;;;;;;5075341;28;20507;-58
2022/11/22 01:41:41;;;;;;;2.30;1.50;;;;;;;;;;5088836;28;20127;-57
2022/11/22 01:44:18;;;;;;;2.88;1.77;;;;;;;;;;5072514;28;20040;-58
2022/11/22 01:46:43;;;;;;;2.53;1.60;;;;;;;;;;5077690;28;20027;-58
2022/11/22 01:49:13;;;;;;;7.95;1.90;;;;;;;;;;5073629;28;20024;-58
2022/11/22 01:51:43;;;;;;;2.72;1.60;;;;;;;;;;5087274;28;20024;-57
2022/11/22 01:54:12;;;;;;;4.22;1.83;;;;;;;;;;5080879;28;20026;-57
2022/11/22 01:56:37;;;;;;;3.80;1.70;;;;;;;;;;5076758;28;20419;-57
2022/11/22 01:59:03;;;;;;;4.40;2.03;;;;;;;;;;5098584;27;20294;-57
2022/11/22 02:01:28;;;;;;;4.55;2.03;;;;;;;;;;5114551;27;20024;-57
2022/11/22 02:03:54;;;;;;;4.32;1.90;;;;;;;;;;5086024;28;20504;-57
2022/11/22 02:06:19;;;;;;;5.80;1.95;;;;;;;;;;5116258;27;20338;-57
2022/11/22 02:08:44;;;;;;;6.22;2.28;;;;;;;;;;5078578;28;20059;-57
2022/11/22 02:11:10;;;;;;;2.60;1.88;;;;;;;;;;5075242;28;20134;-57
2022/11/22 02:13:36;;;;;;;5.70;1.90;;;;;;;;;;5087277;28;20031;-57
2022/11/22 02:16:02;;;;;;;3.88;1.80;;;;;;;;;;5082430;28;20028;-57
2022/11/22 02:18:27;;;;;;;5.65;2.13;;;;;;;;;;5106870;27;20429;-57
2022/11/22 02:20:52;;;;;;;7.53;1.83;;;;;;;;;;5071243;28;20024;-57
2022/11/22 02:23:17;;;;;;;7.20;2.08;;;;;;;;;;5071963;28;20032;-57
2022/11/22 02:25:43;;;;;;;4.38;2.03;;;;;;;;;;5083099;28;20090;-57
2022/11/22 02:28:08;;;;;;;6.03;2.50;;;;;;;;;;5083197;28;20073;-57
2022/11/22 02:30:34;;;;;;;6.90;2.10;;;;;;;;;;5068069;28;20077;-57
2022/11/22 02:33:00;;;;;;;4.20;2.17;;;;;;;;;;5082964;28;20020;-57
2022/11/22 02:35:27;;;;;;;4.28;1.90;;;;;;;;;;5091533;28;20024;-57
2022/11/22 02:37:56;;;;;;;7.18;2.30;;;;;;;;;;5087382;28;20023;-57
2022/11/22 02:40:21;;;;;;;4.05;2.10;;;;;;;;;;5082656;28;20385;-55
2022/11/22 02:42:47;;;;;;;9.05;2.60;;;;;;;;;;5079683;28;20072;-58
2022/11/22 02:45:12;;;;;;;4.47;1.98;;;;;;;;;;5072374;28;20032;-56
2022/11/22 02:47:37;;;;;;;4.00;2.22;;;;;;;;;;5074001;28;20432;-58
2022/11/22 02:50:03;;;;;;;10.40;2.20;;;;;;;;;;5070817;28;20067;-58
2022/11/22 02:52:28;;;;;;;4.68;2.28;;;;;;;;;;5083997;28;20111;-56
2022/11/22 02:54:53;;;;;;;9.05;2.63;;;;;;;;;;5075876;28;20024;-56
2022/11/22 02:57:18;;;;;;;10.50;2.53;;;;;;;;;;5077670;28;20604;-56
2022/11/22 02:59:44;;;;;;;5.38;2.00;;;;;;;;;;5071505;28;20029;-56
2022/11/22 03:02:09;;;;;;;7.63;2.40;;;;;;;;;;5078878;28;20073;-58
2022/11/22 03:04:34;;;;;;;7.00;2.55;;;;;;;;;;5079369;28;20081;-56
2022/11/22 03:07:00;;;;;;;5.30;2.30;;;;;;;;;;5081613;28;20580;-56
2022/11/22 03:09:26;;;;;;;9.88;2.45;;;;;;;;;;5076424;28;20028;-57
2022/11/22 03:11:51;;;;;;;6.50;2.10;;;;;;;;;;5081516;28;20024;-58
2022/11/22 03:14:16;;;;;;;5.30;2.22;;;;;;;;;;5074158;28;20046;-56
2022/11/22 03:16:42;;;;;;;4.95;2.22;;;;;;;;;;5085263;28;20405;-58
2022/11/22 03:19:07;;;;;;;6.22;2.30;;;;;;;;;;5067983;28;20035;-56
2022/11/22 03:21:33;;;;;;;5.30;2.15;;;;;;;;;;5077665;28;20441;-57
2022/11/22 03:23:58;;;;;;;14.38;2.60;;;;;;;;;;5084780;28;20402;-56
2022/11/22 03:26:23;;;;;;;6.40;2.28;;;;;;;;;;5080965;28;20027;-56
2022/11/22 03:28:48;;;;;;;7.38;2.38;;;;;;;;;;5085656;28;20072;-58
2022/11/22 03:31:14;;;;;;;12.82;2.22;;;;;;;;;;5081193;28;20483;-58
2022/11/22 03:33:39;;;;;;;12.43;2.63;;;;;;;;;;5074345;28;20536;-56
2022/11/22 03:36:04;;;;;;;6.95;2.30;;;;;;;;;;5079118;28;20478;-56
2022/11/22 03:38:29;;;;;;;15.20;2.70;;;;;;;;;;5081035;28;20435;-56
2022/11/22 03:40:54;;;;;;;10.02;2.47;;;;;;;;;;5091268;28;20068;-56
2022/11/22 03:43:20;;;;;;;11.60;2.50;;;;;;;;;;5079720;28;20040;-58
2022/11/22 03:45:45;;;;;;;12.68;2.78;;;;;;;;;;5075707;28;20038;-56
2022/11/22 03:48:10;;;;;;;10.13;2.58;;;;;;;;;;5080384;28;20020;-58
2022/11/22 03:50:36;;;;;;;12.82;2.85;;;;;;;;;;5068929;28;20458;-56
2022/11/22 03:53:01;;;;;;;8.40;2.55;;;;;;;;;;5075401;28;20129;-56
2022/11/22 03:55:26;;;;;;;12.63;2.90;;;;;;;;;;5074889;28;20035;-56
2022/11/22 03:57:51;;;;;;;21.27;3.17;;;;;;;;;;5083755;28;20020;-58
2022/11/22 04:00:17;;;;;;;9.98;3.00;;;;;;;;;;5076595;28;20066;-58
2022/11/22 04:02:42;;;;;;;18.25;2.92;;;;;;;;;;5087454;28;20036;-57
2022/11/22 04:05:07;;;;;;;14.68;2.65;;;;;;;;;;5076668;28;20036;-57
2022/11/22 04:07:33;;;;;;;11.20;2.88;;;;;;;;;;5084028;28;20052;-58
2022/11/22 04:09:58;;;;;;;12.93;3.08;;;;;;;;;;5077280;28;20243;-58
2022/11/22 04:12:23;;;;;;;11.63;3.00;;;;;;;;;;5080026;28;20060;-57
2022/11/22 04:15:06;;;;;;;19.65;3.63;;;;;;;;;;5073722;28;20431;-57
2022/11/22 04:17:44;;;;;;;16.30;3.50;;;;;;;;;;5082451;28;20062;-57
2022/11/22 04:23:03;;;;;;;13.90;2.88;;;;;;;;;;5076460;28;20418;-58
2022/11/22 04:25:29;;;;;;;16.23;2.92;;;;;;;;;;5073717;28;20067;-57
2022/11/22 04:27:55;;;;;;;19.73;3.35;;;;;;;;;;5076346;28;20400;-57
2022/11/22 04:30:20;;;;;;;20.17;3.42;;;;;;;;;;5086802;28;20374;-57
2022/11/22 04:32:45;;;;;;;13.48;3.10;;;;;;;;;;5119027;27;20051;-57
2022/11/22 04:35:14;;;;;;;11.65;2.90;;;;;;;;;;5078383;28;20103;-57
2022/11/22 04:37:40;;;;;;;16.40;3.13;;;;;;;;;;5079463;28;20076;-58
2022/11/22 04:40:05;;;;;;;19.67;3.25;;;;;;;;;;5077671;28;20028;-58
2022/11/22 04:45:15;;;;;;;17.60;3.85;;;;;;;;;;5080975;28;20046;-57
2022/11/22 04:47:58;;;;;;;15.38;2.95;;;;;;;;;;5080447;28;20020;-57
2022/11/22 04:53:07;;;;;;;16.05;2.70;;;;;;;;;;5086770;28;20024;-57
2022/11/22 04:55:33;;;;;;;12.02;2.78;;;;;;;;;;5080687;28;20028;-58
2022/11/22 04:57:58;;;;;;;11.18;2.70;;;;;;;;;;5083992;28;20470;-57
2022/11/22 05:00:24;;;;;;;15.43;3.53;;;;;;;;;;5074079;28;20017;-57
2022/11/22 05:02:49;;;;;;;17.15;3.75;;;;;;;;;;5077385;28;20167;-58
2022/11/22 05:05:14;;;;;;;14.95;3.03;;;;;;;;;;5078309;28;20058;-58
2022/11/22 05:07:39;;;;;;;21.33;3.83;;;;;;;;;;5077746;28;20455;-58
2022/11/22 05:10:05;;;;;;;10.35;3.10;;;;;;;;;;5081663;28;20350;-57
2022/11/22 05:12:30;;;;;;;17.83;2.92;;;;;;;;;;5079520;28;20045;-58
2022/11/22 05:14:55;;;;;;;12.07;2.80;;;;;;;;;;5080326;28;20028;-57
2022/11/22 05:17:20;;;;;;;18.42;3.17;;;;;;;;;;5078570;28;20113;-57
2022/11/22 05:19:45;;;;;;;17.15;3.35;;;;;;;;;;5090469;28;20237;-58
2022/11/22 05:22:11;;;;;;;15.65;3.13;;;;;;;;;;5076764;28;20097;-57
2022/11/22 05:24:36;;;;;;;16.58;2.58;;;;;;;;;;5088254;28;20068;-58
2022/11/22 05:27:01;;;;;;;11.27;3.03;;;;;;;;;;5077568;28;20032;-57
2022/11/22 05:29:26;;;;;;;12.48;2.80;;;;;;;;;;5081639;28;20029;-57
2022/11/22 05:31:52;;;;;;;12.25;2.72;;;;;;;;;;5078903;28;20044;-57
2022/11/22 05:34:17;;;;;;;21.30;2.83;;;;;;;;;;5080769;28;20111;-57
2022/11/22 05:36:42;;;;;;;19.83;3.45;;;;;;;;;;5096871;28;20023;-57
2022/11/22 05:39:07;;;;;;;10.98;2.22;;;;;;;;;;5086799;28;20032;-58
2022/11/22 05:41:33;;;;;;;16.33;3.00;;;;;;;;;;5092589;28;20488;-56
2022/11/22 05:43:58;;;;;;;18.63;4.05;;;;;;;;;;5083210;28;20036;-58
2022/11/22 05:46:25;;;;;;;17.23;3.13;;;;;;;;;;5090697;28;20073;-58
2022/11/22 05:48:50;;;;;;;10.52;2.78;;;;;;;;;;5089769;28;20533;-58
2022/11/22 05:51:16;;;;;;;13.55;2.17;;;;;;;;;;5079510;28;20028;-58
2022/11/22 05:53:41;;;;;;;18.15;3.20;;;;;;;;;;5078881;28;20451;-57
2022/11/22 05:56:06;;;;;;;8.43;2.95;;;;;;;;;;5083685;28;20115;-57
2022/11/22 05:58:32;;;;;;;17.08;3.10;;;;;;;;;;5080165;28;20040;-58
2022/11/22 06:01:01;;;;;;;28.50;2.70;;;;;;;;;;5084032;28;20038;-57
2022/11/22 06:03:26;;;;;;;13.80;2.72;;;;;;;;;;5083785;28;20056;-57
2022/11/22 06:05:51;;;;;;;13.07;2.97;;;;;;;;;;5091176;28;20497;-57
2022/11/22 06:08:17;;;;;;;11.75;2.90;;;;;;;;;;5073936;28;20048;-57
2022/11/22 06:10:42;;;;;;;17.05;3.47;;;;;;;;;;5080685;28;20108;-58
2022/11/22 06:13:07;;;;;;;12.65;2.95;;;;;;;;;;5081257;28;20482;-57
2022/11/22 06:15:32;;;;;;;13.05;3.35;;;;;;;;;;5113429;27;20099;-57
2022/11/22 06:17:57;;;;;;;14.13;3.05;;;;;;;;;;5083253;28;20024;-56
2022/11/22 06:20:23;;;;;;;14.57;3.15;;;;;;;;;;5079343;28;20023;-57
2022/11/22 06:22:48;;;;;;;9.80;2.63;;;;;;;;;;5089882;28;20027;-58
2022/11/22 06:25:16;;;;;;;15.27;3.40;;;;;;;;;;5071971;28;20093;-57
2022/11/22 06:27:41;;;;;;;17.25;3.08;;;;;;;;;;5089474;28;20019;-57
2022/11/22 06:30:07;;;;;;;14.77;3.63;;;;;;;;;;5075342;28;20032;-58
2022/11/22 06:32:33;;;;;;;16.55;3.20;;;;;;;;;;5077733;28;20119;-58
2022/11/22 06:34:58;;;;;;;13.98;2.60;;;;;;;;;;5072759;28;20027;-58
2022/11/22 06:37:23;;;;;;;8.98;2.10;;;;;;;;;;5078739;28;20017;-59
2022/11/22 06:39:49;;;;;;;13.25;3.63;;;;;;;;;;5082320;28;20085;-58
2022/11/22 06:42:14;;;;;;;14.27;2.38;;;;;;;;;;5083420;28;20038;-58
2022/11/22 06:44:39;;;;;;;14.20;2.47;;;;;;;;;;5070416;28;20119;-58
2022/11/22 06:47:04;;;;;;;10.48;2.25;;;;;;;;;;5079955;28;20051;-57
2022/11/22 06:49:30;;;;;;;9.57;2.63;;;;;;;;;;5080312;28;20101;-58
2022/11/22 06:51:55;;;;;;;13.57;2.85;;;;;;;;;;5080331;28;20109;-58
2022/11/22 06:54:20;;;;;;;10.25;2.28;;;;;;;;;;5076802;28;20029;-58
2022/11/22 06:56:46;;;;;;;8.52;2.17;;;;;;;;;;5079206;28;20473;-58
2022/11/22 06:59:11;;;;;;;9.93;2.90;;;;;;;;;;5070372;28;20036;-58
2022/11/22 07:01:37;;;;;;;11.32;2.50;;;;;;;;;;5087535;28;20071;-58
2022/11/22 07:04:02;;;;;;;10.40;2.33;;;;;;;;;;5073024;28;20120;-57
2022/11/22 07:06:32;;;;;;;5.10;2.42;;;;;;;;;;5084746;28;20851;-58
2022/11/22 07:08:57;;;;;;;10.02;2.63;;;;;;;;;;5081582;28;20395;-58
2022/11/22 07:11:23;;;;;;;12.43;2.70;;;;;;;;;;5076332;28;20722;-58
2022/11/22 07:13:49;;;;;;;11.15;2.60;;;;;;;;;;5068560;28;20464;-57
2022/11/22 07:16:15;;;;;;;14.10;2.85;;;;;;;;;;5080645;28;20465;-57
2022/11/22 07:18:40;;;;;;;6.32;2.00;;;;;;;;;;5079676;28;20024;-57
2022/11/22 07:21:06;;;;;;;8.82;2.55;;;;;;;;;;5075823;28;20032;-57
2022/11/22 07:23:31;;;;;;;11.13;2.28;;;;;;;;;;5082851;28;20633;-57
2022/11/22 07:25:57;;;;;;;8.50;2.38;;;;;;;;;;5077099;28;20040;-57
2022/11/22 07:28:23;;;;;;;9.95;2.30;;;;;;;;;;5080746;28;20024;-57
2022/11/22 07:30:49;;;;;;;8.93;2.53;;;;;;;;;;5068530;28;20429;-57
2022/11/22 07:33:14;;;;;;;11.02;2.03;;;;;;;;;;5075831;28;20027;-57
2022/11/22 07:35:39;;;;;;;10.70;2.65;;;;;;;;;;5077336;28;20019;-57
2022/11/22 07:38:05;;;;;;;6.72;2.40;;;;;;;;;;5071078;28;20020;-56
2022/11/22 07:40:30;;;;;;;13.35;2.50;;;;;;;;;;5076277;28;20024;-56
2022/11/22 07:42:55;;;;;;;11.80;2.38;;;;;;;;;;5076891;28;20406;-57
2022/11/22 07:45:20;;;;;;;15.10;2.63;;;;;;;;;;5076739;28;20082;-57
2022/11/22 07:47:46;;;;;;;9.18;2.20;;;;;;;;;;5071960;28;20225;-57
2022/11/22 07:50:11;;;;;;;9.90;2.38;;;;;;;;;;5067803;28;20072;-56
2022/11/22 07:52:36;;;;;;;8.10;2.20;;;;;;;;;;5080216;28;20021;-57
2022/11/22 07:55:02;;;;;;;4.93;1.90;;;;;;;;;;5080933;28;20200;-56
2022/11/22 07:57:27;;;;;;;4.70;1.60;;;;;;;;;;5073003;28;20017;-58
2022/11/22 07:59:52;;;;;;;8.23;2.15;;;;;;;;;;5074910;28;20115;-57
2022/11/22 08:02:17;;;;;;;7.20;1.90;;;;;;;;;;5086001;28;20518;-57
2022/11/22 08:04:42;;;;;;;7.50;2.00;;;;;;;;;;5084406;28;20668;-57
2022/11/22 08:07:08;;;;;;;8.25;2.05;;;;;;;;;;5075237;28;20538;-57
2022/11/22 08:09:33;;;;;;;8.85;2.60;;;;;;;;;;5076959;28;20594;-56
2022/11/22 08:11:59;;;;;;;12.32;2.17;;;;;;;;;;5074784;28;20016;-57
2022/11/22 08:14:24;;;;;;;24.85;9.80;;;;;;;;;;5081383;28;20011;-57
2022/11/22 08:16:49;;;;;;;21.98;8.27;;;;;;;;;;5092436;28;20032;-57
2022/11/22 08:19:16;;;;;;;7.68;2.38;;;;;;;;;;5071726;28;20017;-57
2022/11/22 08:21:42;;;;;;;11.93;2.45;;;;;;;;;;5094434;28;20080;-57
2022/11/22 08:24:07;;;;;;;14.10;1.95;;;;;;;;;;5085430;28;20039;-57
2022/11/22 08:26:33;;;;;;;13.30;2.05;;;;;;;;;;5082198;28;20031;-57
2022/11/22 08:28:58;;;;;;;11.15;2.30;;;;;;;;;;5111774;27;20102;-57
2022/11/22 08:31:23;;;;;;;10.48;2.00;;;;;;;;;;5078214;28;20019;-57
2022/11/22 08:33:51;;;;;;;9.65;2.60;;;;;;;;;;5081037;28;20028;-57
2022/11/22 08:36:16;;;;;;;11.85;2.05;;;;;;;;;;5074143;28;20478;-56
2022/11/22 08:38:41;;;;;;;7.93;2.38;;;;;;;;;;5079312;28;20039;-57
2022/11/22 08:41:06;;;;;;;8.93;1.90;;;;;;;;;;5071825;28;20024;-57
2022/11/22 08:43:31;;;;;;;8.48;2.40;;;;;;;;;;5091172;28;20461;-57
2022/11/22 08:45:57;;;;;;;11.32;2.22;;;;;;;;;;5077138;28;20043;-56
2022/11/22 08:48:23;;;;;;;11.63;2.33;;;;;;;;;;5108645;27;20085;-55
2022/11/22 08:50:51;;;;;;;9.60;1.90;;;;;;;;;;5088147;28;20485;-56
2022/11/22 08:53:17;;;;;;;11.10;2.22;;;;;;;;;;5078992;28;20028;-57
2022/11/22 08:55:42;;;;;;;6.35;2.03;;;;;;;;;;5080646;28;20022;-56
2022/11/22 08:58:07;;;;;;;8.80;2.13;;;;;;;;;;5083169;28;20028;-57
2022/11/22 09:00:32;;;;;;;8.88;2.10;;;;;;;;;;5090730;28;20032;-57
2022/11/22 09:02:58;;;;;;;12.80;2.55;;;;;;;;;;5087742;28;20637;-57
2022/11/22 09:05:23;;;;;;;13.80;2.35;;;;;;;;;;5084865;28;20533;-57
2022/11/22 09:07:48;;;;;;;7.80;2.10;;;;;;;;;;5076679;28;20484;-56
2022/11/22 09:10:13;;;;;;;11.05;2.00;;;;;;;;;;5083328;28;20464;-56
2022/11/22 09:12:41;;;;;;;11.43;1.90;;;;;;;;;;5091147;28;20020;-57
2022/11/22 09:15:07;;;;;;;13.07;2.80;;;;;;;;;;5075617;28;20439;-56
2022/11/22 09:17:32;;;;;;;10.00;2.30;;;;;;;;;;5083068;28;20031;-57
2022/11/22 09:19:57;;;;;;;7.78;2.70;;;;;;;;;;5077293;28;20107;-57
2022/11/22 09:22:23;;;;;;;8.70;2.38;;;;;;;;;;5086063;28;20052;-57
2022/11/22 09:24:48;;;;;;;10.90;3.00;;;;;;;;;;5092470;28;20493;-57
2022/11/22 09:27:13;;;;;;;8.30;2.13;;;;;;;;;;5090060;28;20032;-56
2022/11/22 09:29:39;;;;;;;8.65;2.13;;;;;;;;;;5080244;28;20038;-56
2022/11/22 09:32:07;;;;;;;10.25;2.35;;;;;;;;;;5090603;28;20109;-56
2022/11/22 09:34:32;;;;;;;9.27;2.67;;;;;;;;;;5085094;28;20020;-56
2022/11/22 09:36:58;;;;;;;9.23;2.05;;;;;;;;;;5085092;28;20030;-56
2022/11/22 09:39:23;;;;;;;7.28;1.98;;;;;;;;;;5077685;28;20038;-57
2022/11/22 09:41:51;;;;;;;7.57;2.13;;;;;;;;;;5073908;28;20049;-58
2022/11/22 09:44:19;;;;;;;9.00;2.08;;;;;;;;;;5080850;28;20299;-58
2022/11/22 09:46:52;;;;;;;8.35;2.45;;;;;;;;;;5077407;28;20063;-58
2022/11/22 09:49:36;;;;;;;6.82;2.00;;;;;;;;;;5073194;28;20024;-55
2022/11/22 09:52:06;;;;;;;15.82;2.97;;;;;;;;;;5073848;28;20020;-58
2022/11/22 09:54:38;;;;;;;8.48;1.95;;;;;;;;;;5098073;27;20012;-57
2022/11/22 09:57:03;;;;;;;9.15;2.30;;;;;;;;;;5078182;28;20112;-56
2022/11/22 09:59:30;;;;;;;7.30;2.35;;;;;;;;;;5069610;28;20115;-56
2022/11/22 10:02:00;;;;;;;7.72;2.08;;;;;;;;;;5080113;28;20050;-57
2022/11/22 10:04:27;;;;;;;10.90;2.28;;;;;;;;;;5110420;27;20544;-56
2022/11/22 10:06:53;;;;;;;7.07;2.00;;;;;;;;;;5115920;27;20127;-56
2022/11/22 10:09:28;;;;;;;15.85;2.70;;;;;;;;;;5105396;27;20116;-58
2022/11/22 10:11:54;;;;;;;3.95;1.42;;;;;;;;;;5087302;28;20019;-58
2022/11/22 10:14:29;;;;;;;6.63;1.95;;;;;;;;;;5077106;28;20047;-55
2022/11/22 10:16:55;;;;;;;7.00;2.03;;;;;;;;;;5081398;28;20517;-59
2022/11/22 10:19:40;;;;;;;9.55;2.35;;;;;;;;;;5082227;28;20016;-59
2022/11/22 10:22:09;;;;;;;6.38;2.15;;;;;;;;;;5078684;28;20519;-58
2022/11/22 10:24:34;;;;;;;7.65;2.30;;;;;;;;;;5113584;27;20024;-58
2022/11/22 10:27:00;;;;;;;9.02;2.10;;;;;;;;;;5074462;28;20024;-58
2022/11/22 10:29:28;;;;;;;7.38;1.85;;;;;;;;;;5067785;28;20028;-57
2022/11/22 10:31:57;;;;;;;8.18;1.83;;;;;;;;;;5082773;28;20032;-58
2022/11/22 10:34:22;;;;;;;8.93;1.95;;;;;;;;;;5114395;27;20347;-58
2022/11/22 10:36:48;;;;;;;9.27;1.70;;;;;;;;;;5075216;28;20022;-58
2022/11/22 10:39:17;;;;;;;3.75;1.65;;;;;;;;;;5080535;28;20089;-58
2022/11/22 10:41:54;;;;;;;7.05;1.70;;;;;;;;;;5077653;28;20048;-58
2022/11/22 10:44:29;;;;;;;4.20;1.70;;;;;;;;;;5082642;28;20036;-57
2022/11/22 10:46:54;;;;;;;6.90;1.70;;;;;;;;;;5077603;28;20016;-57
2022/11/22 10:49:28;;;;;;;6.03;1.65;;;;;;;;;;5085126;28;20486;-58
2022/11/22 10:51:56;;;;;;;5.05;1.58;;;;;;;;;;5074954;28;20947;-58
2022/11/22 10:54:24;;;;;;;3.35;1.50;;;;;;;;;;5104359;27;20239;-58
2022/11/22 10:56:55;;;;;;;4.85;1.50;;;;;;;;;;5073577;28;20383;-57
2022/11/22 10:59:39;;;;;;;7.57;1.77;;;;;;;;;;5082736;28;20187;-58
2022/11/22 11:02:22;;;;;;;4.45;1.20;;;;;;;;;;5080024;28;20023;-57
2022/11/22 11:04:47;;;;;;;3.33;1.58;;;;;;;;;;5086432;28;20085;-58
2022/11/22 11:07:16;;;;;;;5.50;1.67;;;;;;;;;;5073844;28;20063;-58
2022/11/22 11:09:42;;;;;;;4.03;1.70;;;;;;;;;;5114943;27;20027;-58
2022/11/22 11:12:31;;;;;;;3.60;1.40;;;;;;;;;;5082564;28;20446;-56
2022/11/22 11:15:01;;;;;;;5.70;1.45;;;;;;;;;;5022899;28;20690;-56
2022/11/22 11:17:30;;;;;;;5.15;1.50;;;;;;;;;;5114678;27;20027;-58
2022/11/22 11:19:56;;;;;;;6.80;1.58;;;;;;;;;;5088054;28;20113;-56
2022/11/22 11:22:22;;;;;;;1.75;1.25;;;;;;;;;;5085428;28;20028;-56
2022/11/22 11:24:47;;;;;;;4.60;1.35;;;;;;;;;;5079120;28;20093;-56
2022/11/22 11:27:12;;;;;;;4.70;1.52;;;;;;;;;;5112017;27;20016;-56
2022/11/22 11:29:48;;;;;;;4.47;1.48;;;;;;;;;;5081743;28;20032;-55
2022/11/22 11:32:18;;;;;;;7.15;1.60;;;;;;;;;;5081148;28;20031;-58
2022/11/22 11:34:49;;;;;;;4.82;1.55;;;;;;;;;;5077183;28;20023;-58
2022/11/22 11:37:20;;;;;;;5.38;1.70;;;;;;;;;;5080222;28;20038;-58
2022/11/22 11:39:46;;;;;;;5.32;1.60;;;;;;;;;;5080388;28;20024;-57
2022/11/22 11:42:25;;;;;;;6.25;1.67;;;;;;;;;;5078470;28;20031;-58
2022/11/22 11:44:50;;;;;;;4.18;1.60;;;;;;;;;;5083175;28;20069;-56
2022/11/22 11:47:30;;;;;;;4.20;1.40;;;;;;;;;;5082356;28;20016;-56
2022/11/22 11:49:56;;;;;;;5.10;1.77;;;;;;;;;;5077245;28;20321;-58
2022/11/22 11:52:21;;;;;;;3.92;1.75;;;;;;;;;;5086983;28;20402;-57
2022/11/22 11:54:47;;;;;;;3.72;1.60;;;;;;;;;;5078664;28;20111;-58
2022/11/22 11:57:12;;;;;;;4.32;1.70;;;;;;;;;;5112967;27;20067;-58
2022/11/22 11:59:37;;;;;;;5.82;1.65;;;;;;;;;;5092104;28;20470;-58
2022/11/22 12:02:02;;;;;;;4.35;1.67;;;;;;;;;;5078216;28;20013;-57
2022/11/22 12:04:29;;;;;;;4.78;1.67;;;;;;;;;;5084931;28;20105;-57
2022/11/22 12:06:55;;;;;;;8.45;2.53;;;;;;;;;;5076317;28;20052;-58
2022/11/22 12:09:27;;;;;;;4.90;1.48;;;;;;;;;;5078064;28;20117;-58
2022/11/22 12:11:53;;;;;;;3.45;1.50;;;;;;;;;;5075631;28;20491;-58
2022/11/22 12:14:18;;;;;;;3.88;1.70;;;;;;;;;;5074452;28;20016;-57
2022/11/22 12:16:45;;;;;;;5.28;1.25;;;;;;;;;;5072378;28;20457;-59
2022/11/22 12:19:13;;;;;;;5.28;1.80;;;;;;;;;;5076698;28;20012;-57
2022/11/22 12:21:41;;;;;;;4.50;1.80;;;;;;;;;;5080642;28;20030;-58
2022/11/22 12:24:20;;;;;;;5.50;1.70;;;;;;;;;;5087327;28;20514;-58
2022/11/22 12:26:45;;;;;;;4.18;2.20;;;;;;;;;;5109278;27;20489;-58
2022/11/22 12:29:11;;;;;;;3.67;1.95;;;;;;;;;;5075872;28;20066;-57
2022/11/22 12:31:38;;;;;;;3.78;2.10;;;;;;;;;;5117954;27;20036;-58
2022/11/22 12:34:09;;;;;;;7.03;2.38;;;;;;;;;;5077809;28;21134;-57
2022/11/22 12:36:44;;;;;;;4.32;2.30;;;;;;;;;;5072812;28;20032;-58
2022/11/22 12:39:14;;;;;;;8.32;4.15;;;;;;;;;;5076731;28;20107;-58
2022/11/22 12:41:39;;;;;;;;;;;;;;;;;;5074347;28;20106;-57
2022/11/22 12:44:05;;;;;;;5.63;2.30;;;;;;;;;;5087696;28;20006;-57
2022/11/22 12:46:38;;;;;;;3.72;2.30;;;;;;;;;;5076384;28;20296;-57
2022/11/22 12:49:05;;;;;;;5.43;2.38;;;;;;;;;;5070282;28;20120;-57
2022/11/22 12:51:56;;;;;;;7.38;3.25;;;;;;;;;;5086550;28;20039;-57
2022/11/22 12:54:23;;;;;;;5.28;2.42;;;;;;;;;;5075257;28;20461;-58
2022/11/22 12:56:55;;;;;;;5.45;2.22;;;;;;;;;;5092600;28;20049;-57
2022/11/22 12:59:28;;;;;;;5.03;2.50;;;;;;;;;;5081791;28;20489;-58
2022/11/22 13:01:59;;;;;;;2.70;2.00;;;;;;;;;;5080545;28;20033;-57
2022/11/22 13:04:44;;;;;;;4.90;1.63;;;;;;;;;;5085784;28;20111;-58
2022/11/22 13:07:10;;;;;;;6.93;2.90;;;;;;;;;;5090129;28;20035;-57
2022/11/22 13:09:36;;;;;;;5.22;2.10;;;;;;;;;;5081438;28;20501;-57
2022/11/22 13:12:05;;;;;;;9.40;2.90;;;;;;;;;;5087057;28;20274;-57
2022/11/22 13:14:52;;;;;;;5.38;2.60;;;;;;;;;;5110099;27;20054;-57
2022/11/22 13:17:18;;;;;;;11.18;2.92;;;;;;;;;;5081046;28;20474;-58
2022/11/22 13:19:44;;;;;;;8.48;3.88;;;;;;;;;;5074420;28;20420;-57
2022/11/22 13:22:14;;;;;;;8.35;2.78;;;;;;;;;;5071237;28;20028;-57
2022/11/22 13:25:01;;;;;;;7.82;2.92;;;;;;;;;;5080591;28;20533;-57
2022/11/22 13:27:30;;;;;;;7.50;2.30;;;;;;;;;;5079623;28;20465;-57
2022/11/22 13:29:56;;;;;;;5.38;2.00;;;;;;;;;;5087740;28;20560;-57
2022/11/22 13:32:22;;;;;;;5.32;2.05;;;;;;;;;;5086471;28;20127;-57
2022/11/22 13:35:00;;;;;;;10.50;3.17;;;;;;;;;;5081604;28;20136;-57
2022/11/22 13:37:25;;;;;;;3.78;1.70;;;;;;;;;;5086884;28;20077;-57
2022/11/22 13:39:50;;;;;;;3.88;2.00;;;;;;;;;;5080426;28;20610;-56
2022/11/22 13:42:19;;;;;;;4.47;1.80;;;;;;;;;;5076225;28;20699;-57
2022/11/22 13:44:51;;;;;;;5.18;1.92;;;;;;;;;;5076815;28;20035;-57
2022/11/22 13:47:16;;;;;;;3.20;1.70;;;;;;;;;;5075265;28;20387;-57
2022/11/22 13:49:44;;;;;;;2.47;1.60;;;;;;;;;;5083973;28;20023;-57
2022/11/22 13:52:16;;;;;;;4.10;1.52;;;;;;;;;;5084265;28;20035;-56
2022/11/22 13:54:47;;;;;;;2.53;1.73;;;;;;;;;;5076283;28;20103;-57
2022/11/22 13:57:27;;;;;;;1.15;1.00;;;;;;;;;;5080738;28;20153;-57
2022/11/22 14:00:13;;;;;;;2.10;1.13;;;;;;;;;;5078670;28;20440;-57
2022/11/22 14:02:40;;;;;;;1.05;0.98;;;;;;;;;;5075678;28;20035;-57
2022/11/22 14:05:16;;;;;;;0.70;0.70;;;;;;;;;;5076501;28;20060;-57
2022/11/22 14:07:41;;;;;;;1.30;0.90;;;;;;;;;;5080121;28;20120;-57
2022/11/22 14:10:42;;;;;;;2.35;1.13;;;;;;;;;;5083979;28;20024;-57
2022/11/22 14:13:07;;;;;;;;;;;;;;;;;;4994529;28;20026;-56
2022/11/22 14:15:35;;;;;;;1.65;1.17;;;;;;;;;;5057089;28;20009;-57
2022/11/22 14:18:12;;;;;;;1.73;1.20;;;;;;;;;;5079843;28;20290;-57
2022/11/22 14:20:53;;;;;;;1.30;0.80;;;;;;;;;;5084249;28;20226;-57
2022/11/22 14:23:24;;;;;;;0.85;0.85;;;;;;;;;;5080236;28;20056;-57
2022/11/22 14:26:12;;;;;;;1.40;0.90;;;;;;;;;;5084271;28;20039;-57
2022/11/22 14:28:50;;;;;;;0.80;0.80;;;;;;;;;;5066221;28;20040;-57
2022/11/22 14:31:25;;;;;;;1.35;0.80;;;;;;;;;;5075694;28;20028;-57
2022/11/22 14:34:09;;;;;;;1.40;1.13;;;;;;;;;;5076887;28;20359;-58
2022/11/22 14:36:34;;;;;;;0.77;0.77;;;;;;;;;;5083459;28;20032;-57
2022/11/22 14:39:00;;;;;;;1.23;0.93;;;;;;;;;;5120049;27;20039;-57
2022/11/22 14:41:25;;;;;;;0.50;0.50;;;;;;;;;;5072929;28;20107;-57
2022/11/22 14:43:51;;;;;;;1.58;0.93;;;;;;;;;;5078583;28;20470;-57
2022/11/22 14:46:17;;;;;;;0.88;0.85;;;;;;;;;;5112594;27;20038;-57
2022/11/22 14:48:48;;;;;;;3.42;1.48;;;;;;;;;;5110317;27;20368;-57